createdAt,value
2023-04-20T00:00:47.708Z,2.40
2023-04-20T00:03:14.796Z,2.40
2023-04-20T00:05:41.710Z,2.40
2023-04-20T00:08:08.759Z,2.30
2023-04-20T00:10:35.403Z,2.20
2023-04-20T00:13:01.966Z,2.10
2023-04-20T00:15:30.259Z,2.10
2023-04-20T00:17:57.262Z,2.10
2023-04-20T00:20:24.577Z,2.10
2023-04-20T00:22:51.271Z,2.10
2023-04-20T00:25:17.900Z,2.00
2023-04-20T00:27:44.696Z,2.00
2023-04-20T00:30:11.739Z,1.90
2023-04-20T00:32:38.461Z,1.80
2023-04-20T00:35:05.677Z,1.70
2023-04-20T00:37:32.361Z,1.80
2023-04-20T00:39:59.101Z,1.80
2023-04-20T00:42:25.945Z,1.90
2023-04-20T00:44:52.620Z,1.90
2023-04-20T00:47:19.270Z,1.90
2023-04-20T00:49:46.023Z,1.80
2023-04-20T00:52:12.834Z,1.80
2023-04-20T00:54:39.587Z,1.80
2023-04-20T00:57:06.299Z,1.70
2023-04-20T00:59:32.896Z,1.80
2023-04-20T01:02:00.002Z,1.60
2023-04-20T01:04:27.182Z,1.60
2023-04-20T01:06:53.797Z,1.60
2023-04-20T01:09:20.848Z,1.50
2023-04-20T01:11:47.513Z,1.50
2023-04-20T01:14:14.443Z,1.60
2023-04-20T01:16:41.546Z,1.50
2023-04-20T01:19:08.502Z,1.60
2023-04-20T01:21:35.159Z,1.50
2023-04-20T01:24:01.866Z,1.40
2023-04-20T01:26:28.558Z,1.40
2023-04-20T01:28:55.504Z,1.40
2023-04-20T01:31:22.734Z,1.40
2023-04-20T01:33:50.083Z,1.50
2023-04-20T01:36:17.045Z,1.50
2023-04-20T01:38:44.096Z,1.50
2023-04-20T01:41:11.027Z,1.50
2023-04-20T01:43:39.216Z,1.50
2023-04-20T01:46:06.372Z,1.50
2023-04-20T01:48:33.800Z,1.50
2023-04-20T01:51:00.721Z,1.50
2023-04-20T01:53:28.010Z,1.40
2023-04-20T01:55:54.960Z,1.40
2023-04-20T01:58:22.070Z,1.60
2023-04-20T02:00:48.832Z,1.50
2023-04-20T02:03:15.945Z,1.50
2023-04-20T02:05:42.940Z,1.40
2023-04-20T02:08:09.789Z,1.20
2023-04-20T02:10:36.522Z,1.50
2023-04-20T02:13:03.483Z,1.10
2023-04-20T02:15:31.134Z,1.00
2023-04-20T02:17:58.244Z,1.00
2023-04-20T02:20:25.020Z,0.90
2023-04-20T02:22:51.736Z,0.80
2023-04-20T02:25:18.553Z,0.70
2023-04-20T02:27:45.322Z,1.80
2023-04-20T02:30:12.623Z,0.70
2023-04-20T02:32:39.448Z,0.60
2023-04-20T02:35:06.488Z,0.60
2023-04-20T02:37:33.357Z,0.50
2023-04-20T02:40:02.486Z,0.50
2023-04-20T02:42:29.432Z,0.40
2023-04-20T02:44:56.308Z,0.40
2023-04-20T02:47:22.994Z,0.50
2023-04-20T02:49:49.704Z,0.40
2023-04-20T02:52:16.663Z,0.40
2023-04-20T02:54:43.376Z,1.80
2023-04-20T02:57:11.794Z,0.60
2023-04-20T02:59:38.750Z,1.90
2023-04-20T03:02:06.002Z,0.50
2023-04-20T03:04:33.085Z,0.60
2023-04-20T03:07:01.651Z,0.70
2023-04-20T03:09:28.838Z,0.70
2023-04-20T03:11:56.016Z,0.60
2023-04-20T03:14:22.899Z,0.60
2023-04-20T03:16:50.031Z,0.60
2023-04-20T03:19:17.201Z,0.50
2023-04-20T03:21:44.585Z,0.40
2023-04-20T03:24:11.328Z,0.30
2023-04-20T03:26:38.062Z,0.20
2023-04-20T03:29:05.025Z,0.20
2023-04-20T03:31:31.758Z,0.10
2023-04-20T03:33:58.504Z,0.10
2023-04-20T03:36:25.447Z,0.10
2023-04-20T03:38:52.296Z,0.20
2023-04-20T03:41:19.336Z,0.20
2023-04-20T03:43:46.093Z,0.20
2023-04-20T03:46:12.851Z,0.20
2023-04-20T03:48:39.680Z,0.20
2023-04-20T03:51:06.520Z,0.90
2023-04-20T03:53:33.328Z,0.30
2023-04-20T03:56:00.096Z,0.20
2023-04-20T03:58:27.051Z,0.20
2023-04-20T04:01:00.724Z,0.20
2023-04-20T04:03:27.577Z,0.10
2023-04-20T04:05:54.501Z,0.20
2023-04-20T04:08:21.355Z,0.10
2023-04-20T04:10:48.196Z,0.20
2023-04-20T04:13:14.929Z,0.20
2023-04-20T04:15:41.773Z,0.20
2023-04-20T04:18:08.562Z,0.60
2023-04-20T04:20:35.257Z,0.30
2023-04-20T04:23:02.248Z,0.40
2023-04-20T04:25:30.079Z,0.30
2023-04-20T04:27:57.526Z,0.30
2023-04-20T04:30:24.276Z,0.30
2023-04-20T04:32:51.377Z,0.20
2023-04-20T04:35:18.206Z,0.20
2023-04-20T04:37:44.918Z,0.20
2023-04-20T04:40:12.052Z,0.30
2023-04-20T04:42:38.848Z,0.30
2023-04-20T04:45:05.847Z,0.40
2023-04-20T04:47:35.843Z,0.30
2023-04-20T04:50:06.187Z,0.40
2023-04-20T04:52:33.249Z,0.40
2023-04-20T04:54:59.962Z,0.80
2023-04-20T04:57:26.709Z,0.50
2023-04-20T04:59:53.402Z,0.60
2023-04-20T05:02:20.278Z,0.60
2023-04-20T05:04:47.386Z,0.70
2023-04-20T05:07:15.291Z,0.80
2023-04-20T05:09:41.949Z,0.90
2023-04-20T05:12:09.056Z,0.90
2023-04-20T05:14:35.730Z,1.00
2023-04-20T05:17:02.653Z,1.00
2023-04-20T05:19:29.866Z,1.00
2023-04-20T05:21:56.567Z,1.00
2023-04-20T05:24:23.593Z,1.00
2023-04-20T05:26:50.350Z,1.00
2023-04-20T05:29:17.323Z,1.00
2023-04-20T05:31:45.135Z,0.90
2023-04-20T05:34:11.929Z,0.90
2023-04-20T05:36:39.671Z,0.90
2023-04-20T05:39:06.715Z,1.10
2023-04-20T05:41:33.444Z,0.80
2023-04-20T05:44:00.302Z,0.80
2023-04-20T05:46:27.120Z,0.80
2023-04-20T05:48:53.892Z,0.80
2023-04-20T05:51:22.144Z,0.80
2023-04-20T05:53:48.889Z,0.90
2023-04-20T05:56:15.706Z,0.90
2023-04-20T05:58:42.961Z,0.90
2023-04-20T06:01:09.649Z,0.90
2023-04-20T06:03:36.808Z,1.00
2023-04-20T06:06:03.726Z,1.00
2023-04-20T06:08:30.509Z,1.10
2023-04-20T06:10:58.138Z,1.20
2023-04-20T06:13:24.890Z,1.40
2023-04-20T06:15:52.912Z,1.60
2023-04-20T06:18:19.951Z,1.80
2023-04-20T06:20:46.990Z,1.90
2023-04-20T06:23:13.681Z,2.10
2023-04-20T06:25:40.442Z,2.20
2023-04-20T06:28:07.282Z,2.30
2023-04-20T06:30:34.352Z,2.40
2023-04-20T06:33:01.554Z,1.00
2023-04-20T06:35:28.252Z,2.70
2023-04-20T06:37:57.462Z,4.30
2023-04-20T06:40:27.407Z,3.10
2023-04-20T06:42:54.306Z,3.20
2023-04-20T06:45:21.395Z,3.30
2023-04-20T06:47:48.275Z,5.50
2023-04-20T06:50:15.420Z,3.40
2023-04-20T06:52:42.186Z,3.50
2023-04-20T06:55:09.201Z,3.70
2023-04-20T06:57:37.558Z,3.80
2023-04-20T07:00:06.462Z,3.80
2023-04-20T07:02:41.903Z,3.90
2023-04-20T07:05:08.674Z,3.90
2023-04-20T07:07:35.514Z,3.90
2023-04-20T07:10:02.381Z,4.00
2023-04-20T07:12:29.104Z,4.10
2023-04-20T07:14:55.713Z,4.20
2023-04-20T07:17:22.503Z,4.30
2023-04-20T07:19:49.245Z,4.40
2023-04-20T07:22:16.035Z,4.70
2023-04-20T07:24:42.857Z,4.80
2023-04-20T07:27:10.030Z,5.00
2023-04-20T07:29:36.750Z,5.20
2023-04-20T07:32:03.471Z,5.30
2023-04-20T07:34:30.823Z,5.40
2023-04-20T07:36:57.654Z,5.50
2023-04-20T07:39:25.488Z,5.50
2023-04-20T07:41:52.098Z,5.60
2023-04-20T07:44:18.830Z,5.70
2023-04-20T07:46:45.506Z,5.80
2023-04-20T07:49:12.111Z,5.70
2023-04-20T07:51:38.777Z,5.80
2023-04-20T07:54:05.536Z,5.90
2023-04-20T07:56:32.269Z,5.90
2023-04-20T07:58:59.086Z,6.00
2023-04-20T08:01:26.275Z,6.20
2023-04-20T08:03:55.247Z,6.30
2023-04-20T08:06:22.132Z,6.40
2023-04-20T08:08:48.790Z,6.40
2023-04-20T08:11:15.453Z,6.40
2023-04-20T08:13:42.482Z,6.20
2023-04-20T08:16:09.521Z,6.20
2023-04-20T08:18:36.263Z,6.10
2023-04-20T08:21:02.928Z,6.10
2023-04-20T08:23:29.588Z,5.90
2023-04-20T08:25:56.926Z,5.90
2023-04-20T08:28:33.547Z,5.90
2023-04-20T08:31:00.924Z,5.80
2023-04-20T08:33:27.658Z,5.70
2023-04-20T08:35:54.350Z,5.60
2023-04-20T08:38:32.797Z,5.50
2023-04-20T08:41:00.317Z,5.40
2023-04-20T08:43:27.007Z,5.30
2023-04-20T08:45:57.439Z,5.30
2023-04-20T08:48:25.098Z,5.30
2023-04-20T08:50:51.895Z,5.30
2023-04-20T08:53:18.538Z,5.30
2023-04-20T08:55:45.223Z,5.20
2023-04-20T08:58:12.013Z,5.20
2023-04-20T09:00:48.186Z,5.10
2023-04-20T09:03:15.275Z,5.10
2023-04-20T09:05:44.073Z,5.10
2023-04-20T09:08:11.002Z,5.00
2023-04-20T09:10:44.457Z,4.90
2023-04-20T09:13:23.547Z,4.80
2023-04-20T09:15:50.441Z,4.70
2023-04-20T09:18:17.630Z,4.60
2023-04-20T09:20:44.283Z,4.60
2023-04-20T09:23:12.231Z,4.60
2023-04-20T09:25:40.864Z,4.60
2023-04-20T09:28:07.552Z,4.60
2023-04-20T09:30:45.392Z,4.70
2023-04-20T09:33:14.413Z,4.80
2023-04-20T09:35:42.329Z,4.80
2023-04-20T09:38:09.568Z,4.80
2023-04-20T09:40:36.402Z,4.80
2023-04-20T09:43:15.437Z,4.80
2023-04-20T09:45:42.596Z,4.90
2023-04-20T09:48:09.286Z,3.30
2023-04-20T09:50:48.626Z,5.00
2023-04-20T09:53:17.652Z,5.10
2023-04-20T09:55:48.919Z,5.20
2023-04-20T09:58:17.743Z,5.30
2023-04-20T10:00:44.426Z,5.50
2023-04-20T10:03:12.795Z,5.60
2023-04-20T10:05:40.021Z,5.70
2023-04-20T10:08:07.123Z,5.80
2023-04-20T10:10:50.175Z,5.90
2023-04-20T10:13:19.897Z,5.80
2023-04-20T10:15:46.653Z,5.90
2023-04-20T10:18:17.915Z,6.00
2023-04-20T10:20:46.919Z,6.00
2023-04-20T10:23:18.580Z,6.00
2023-04-20T10:25:58.436Z,6.00
2023-04-20T10:28:25.369Z,6.00
2023-04-20T10:30:53.469Z,6.10
2023-04-20T10:33:21.099Z,6.30
2023-04-20T10:35:55.410Z,6.30
2023-04-20T10:38:32.293Z,6.20
2023-04-20T10:41:08.251Z,6.00
2023-04-20T10:43:43.421Z,6.00
2023-04-20T10:46:16.544Z,5.80
2023-04-20T10:48:56.451Z,5.80
2023-04-20T10:51:24.193Z,5.90
2023-04-20T10:54:05.275Z,6.00
2023-04-20T10:56:42.024Z,6.10
2023-04-20T10:59:09.867Z,6.10
2023-04-20T11:01:36.908Z,6.40
2023-04-20T11:04:04.419Z,5.70
2023-04-20T11:06:31.572Z,5.60
2023-04-20T11:08:58.332Z,5.50
2023-04-20T11:11:27.762Z,5.50
2023-04-20T11:14:07.704Z,5.50
2023-04-20T11:16:48.012Z,5.50
2023-04-20T11:19:28.686Z,5.60
2023-04-20T11:21:55.483Z,5.60
2023-04-20T11:24:23.460Z,5.60
2023-04-20T11:26:50.669Z,5.60
2023-04-20T11:29:27.216Z,5.60
2023-04-20T11:31:54.160Z,5.60
2023-04-20T11:34:21.515Z,5.70
2023-04-20T11:36:48.973Z,5.80
2023-04-20T11:39:22.602Z,8.20
2023-04-20T11:41:49.317Z,6.00
2023-04-20T11:44:16.274Z,6.10
2023-04-20T11:46:44.236Z,6.00
2023-04-20T11:49:10.967Z,6.00
2023-04-20T11:51:37.831Z,6.60
2023-04-20T11:54:04.552Z,5.60
2023-04-20T11:56:32.136Z,5.90
2023-04-20T11:58:58.766Z,5.50
2023-04-20T12:01:25.792Z,5.50
2023-04-20T12:03:52.941Z,5.50
2023-04-20T12:06:20.625Z,5.60
2023-04-20T12:08:48.517Z,5.90
2023-04-20T12:11:16.942Z,5.50
2023-04-20T12:13:43.624Z,7.60
2023-04-20T12:16:10.379Z,5.40
2023-04-20T12:18:37.075Z,5.40
2023-04-20T12:21:03.984Z,5.30
2023-04-20T12:23:31.164Z,5.30
2023-04-20T12:25:57.904Z,5.20
2023-04-20T12:28:25.029Z,5.20
2023-04-20T12:30:51.722Z,5.10
2023-04-20T12:33:18.432Z,5.10
2023-04-20T12:35:45.483Z,5.20
2023-04-20T12:38:14.461Z,2.80
2023-04-20T12:40:41.440Z,5.00
2023-04-20T12:43:08.506Z,4.90
2023-04-20T12:45:35.413Z,5.00
2023-04-20T12:48:02.165Z,5.10
2023-04-20T12:50:29.112Z,5.00
2023-04-20T12:52:59.202Z,5.00
2023-04-20T12:55:26.410Z,5.00
2023-04-20T12:57:53.413Z,5.10
2023-04-20T13:00:20.565Z,5.10
2023-04-20T13:02:47.618Z,5.00
2023-04-20T13:05:14.757Z,5.10
2023-04-20T13:07:41.705Z,5.20
2023-04-20T13:10:08.905Z,5.20
2023-04-20T13:12:36.053Z,5.20
2023-04-20T13:15:03.272Z,5.30
2023-04-20T13:17:30.033Z,5.30
2023-04-20T13:19:56.772Z,5.40
2023-04-20T13:22:23.493Z,5.30
2023-04-20T13:24:50.263Z,5.30
2023-04-20T13:27:16.962Z,5.30
2023-04-20T13:29:43.720Z,5.30
2023-04-20T13:32:11.221Z,5.30
2023-04-20T13:34:38.200Z,5.30
2023-04-20T13:37:04.992Z,5.30
2023-04-20T13:39:31.808Z,5.30
2023-04-20T13:41:58.835Z,5.30
2023-04-20T13:44:25.672Z,5.60
2023-04-20T13:46:52.468Z,5.30
2023-04-20T13:49:22.813Z,5.30
2023-04-20T13:51:49.908Z,5.30
2023-04-20T13:54:16.986Z,5.40
2023-04-20T13:56:43.989Z,5.40
2023-04-20T13:59:10.814Z,5.40
2023-04-20T14:01:37.701Z,5.40
2023-04-20T14:04:05.019Z,5.40
2023-04-20T14:06:32.031Z,5.40
2023-04-20T14:08:58.960Z,5.40
2023-04-20T14:11:25.846Z,5.30
2023-04-20T14:13:52.914Z,5.40
2023-04-20T14:16:19.731Z,5.30
2023-04-20T14:18:46.835Z,5.30
2023-04-20T14:21:13.952Z,5.20
2023-04-20T14:23:40.886Z,5.20
2023-04-20T14:26:07.635Z,5.30
2023-04-20T14:28:34.481Z,5.30
2023-04-20T14:31:01.867Z,5.30
2023-04-20T14:33:29.284Z,5.30
2023-04-20T14:35:56.137Z,5.30
2023-04-20T14:38:25.028Z,5.30
2023-04-20T14:40:52.493Z,5.30
2023-04-20T14:43:19.320Z,5.30
2023-04-20T14:45:46.881Z,5.30
2023-04-20T14:48:13.734Z,5.30
2023-04-20T14:50:40.870Z,5.30
2023-04-20T14:53:07.717Z,5.30
2023-04-20T14:55:34.414Z,5.30
2023-04-20T14:58:01.201Z,5.30
2023-04-20T15:00:28.428Z,5.40
2023-04-20T15:02:59.814Z,5.40
2023-04-20T15:05:27.525Z,5.40
2023-04-20T15:07:54.537Z,5.30
2023-04-20T15:10:21.689Z,5.30
2023-04-20T15:12:48.872Z,6.20
2023-04-20T15:15:16.528Z,5.40
2023-04-20T15:17:43.368Z,5.40
2023-04-20T15:20:10.302Z,5.40
2023-04-20T15:22:37.500Z,5.40
2023-04-20T15:25:04.863Z,5.50
2023-04-20T15:27:31.739Z,5.50
2023-04-20T15:29:58.702Z,5.50
2023-04-20T15:32:25.979Z,5.50
2023-04-20T15:34:53.184Z,6.20
2023-04-20T15:37:20.198Z,5.40
2023-04-20T15:39:46.943Z,7.90
2023-04-20T15:42:13.840Z,5.30
2023-04-20T15:44:41.525Z,5.30
2023-04-20T15:47:08.404Z,6.80
2023-04-20T15:49:37.655Z,5.30
2023-04-20T15:52:04.669Z,5.30
2023-04-20T15:54:31.393Z,5.40
2023-04-20T15:56:58.065Z,5.70
2023-04-20T15:59:24.790Z,5.30
2023-04-20T16:01:51.667Z,5.30
2023-04-20T16:04:19.073Z,5.30
2023-04-20T16:06:46.095Z,5.50
2023-04-20T16:09:12.938Z,5.40
2023-04-20T16:11:40.295Z,5.40
2023-04-20T16:14:07.697Z,5.50
2023-04-20T16:16:34.527Z,5.50
2023-04-20T16:19:01.358Z,5.50
2023-04-20T16:21:28.276Z,5.50
2023-04-20T16:23:56.697Z,5.50
2023-04-20T16:26:26.161Z,5.50
2023-04-20T16:28:53.498Z,5.60
2023-04-20T16:31:20.636Z,5.50
2023-04-20T16:33:47.409Z,5.50
2023-04-20T16:36:16.332Z,5.50
2023-04-20T16:38:43.549Z,5.50
2023-04-20T16:41:10.393Z,5.50
2023-04-20T16:43:37.198Z,5.50
2023-04-20T16:46:03.997Z,5.50
2023-04-20T16:48:31.348Z,5.50
2023-04-20T16:50:58.356Z,5.50
2023-04-20T16:53:25.256Z,5.50
2023-04-20T16:55:52.066Z,5.50
2023-04-20T16:58:18.740Z,5.50
2023-04-20T17:00:45.700Z,5.50
2023-04-20T17:03:13.907Z,8.10
2023-04-20T17:05:42.158Z,5.50
2023-04-20T17:08:09.385Z,5.50
2023-04-20T17:10:37.435Z,5.50
2023-04-20T17:13:04.333Z,5.50
2023-04-20T17:15:31.334Z,5.50
2023-04-20T17:17:58.516Z,5.50
2023-04-20T17:20:25.305Z,5.50
2023-04-20T17:22:51.995Z,5.50
2023-04-20T17:25:18.816Z,5.50
2023-04-20T17:27:45.628Z,5.50
2023-04-20T17:30:12.573Z,7.20
2023-04-20T17:32:39.450Z,5.50
2023-04-20T17:35:06.549Z,5.50
2023-04-20T17:37:33.226Z,5.50
2023-04-20T17:40:00.276Z,5.50
2023-04-20T17:42:26.951Z,5.50
2023-04-20T17:44:53.611Z,7.60
2023-04-20T17:47:20.322Z,5.50
2023-04-20T17:49:47.164Z,5.50
2023-04-20T17:52:17.978Z,5.50
2023-04-20T17:54:44.687Z,4.10
2023-04-20T17:57:11.652Z,5.50
2023-04-20T17:59:38.377Z,5.50
2023-04-20T18:02:05.222Z,6.40
2023-04-20T18:04:32.098Z,5.50
2023-04-20T18:06:59.168Z,5.50
2023-04-20T18:09:25.787Z,5.50
2023-04-20T18:11:53.135Z,5.50
2023-04-20T18:14:20.208Z,6.60
2023-04-20T18:16:51.794Z,5.50
2023-04-20T18:19:19.047Z,5.50
2023-04-20T18:21:46.288Z,5.50
2023-04-20T18:24:13.091Z,5.50
2023-04-20T18:26:39.903Z,5.50
2023-04-20T18:29:06.935Z,5.50
2023-04-20T18:31:33.796Z,5.50
2023-04-20T18:34:00.478Z,5.60
2023-04-20T18:36:27.282Z,5.60
2023-04-20T18:38:54.627Z,5.60
2023-04-20T18:41:23.407Z,5.60
2023-04-20T18:43:53.160Z,5.60
2023-04-20T18:46:19.774Z,5.60
2023-04-20T18:48:46.610Z,5.60
2023-04-20T18:51:13.539Z,5.60
2023-04-20T18:53:40.404Z,5.60
2023-04-20T18:56:08.462Z,5.50
2023-04-20T18:58:37.090Z,5.60
2023-04-20T19:01:04.448Z,5.60
2023-04-20T19:03:32.314Z,5.60
2023-04-20T19:05:59.285Z,5.60
2023-04-20T19:08:25.955Z,5.60
2023-04-20T19:10:56.443Z,5.60
2023-04-20T19:13:23.641Z,5.60
2023-04-20T19:15:50.793Z,5.60
2023-04-20T19:18:17.739Z,5.60
2023-04-20T19:20:44.379Z,5.60
2023-04-20T19:23:11.106Z,7.60
2023-04-20T19:25:38.130Z,5.60
2023-04-20T19:28:04.965Z,5.60
2023-04-20T19:30:31.665Z,5.60
2023-04-20T19:32:58.519Z,5.60
2023-04-20T19:35:25.201Z,5.60
2023-04-20T19:37:51.827Z,5.60
2023-04-20T19:40:21.758Z,5.60
2023-04-20T19:42:50.037Z,5.60
2023-04-20T19:45:17.260Z,5.70
2023-04-20T19:47:44.443Z,5.60
2023-04-20T19:50:11.405Z,5.60
2023-04-20T19:52:38.132Z,5.90
2023-04-20T19:55:05.747Z,5.70
2023-04-20T19:57:32.434Z,5.60
2023-04-20T19:59:59.943Z,5.60
2023-04-20T20:02:26.821Z,5.60
2023-04-20T20:04:54.839Z,5.60
2023-04-20T20:07:21.557Z,5.60
2023-04-20T20:09:48.377Z,5.60
2023-04-20T20:12:15.050Z,5.60
2023-04-20T20:14:41.628Z,5.60
2023-04-20T20:17:08.281Z,5.50
2023-04-20T20:19:35.024Z,5.50
2023-04-20T20:22:01.688Z,5.50
2023-04-20T20:24:28.328Z,5.50
2023-04-20T20:26:55.009Z,5.50
2023-04-20T20:29:22.943Z,5.50
2023-04-20T20:31:49.663Z,5.50
2023-04-20T20:34:16.524Z,5.50
2023-04-20T20:36:45.386Z,5.50
2023-04-20T20:39:12.843Z,5.50
2023-04-20T20:41:42.699Z,5.50
2023-04-20T20:44:10.487Z,5.50
2023-04-20T20:46:37.660Z,5.40
2023-04-20T20:49:04.722Z,5.40
2023-04-20T20:51:31.679Z,5.40
2023-04-20T20:53:58.918Z,5.40
2023-04-20T20:56:25.839Z,5.50
2023-04-20T20:58:54.401Z,5.40
2023-04-20T21:01:21.817Z,5.40
2023-04-20T21:03:50.081Z,5.40
2023-04-20T21:06:17.173Z,5.40
2023-04-20T21:08:43.985Z,5.30
2023-04-20T21:11:10.752Z,5.40
2023-04-20T21:13:37.368Z,5.40
2023-04-20T21:16:04.244Z,5.40
2023-04-20T21:18:31.088Z,5.30
2023-04-20T21:20:57.917Z,5.40
2023-04-20T21:23:24.658Z,5.40
2023-04-20T21:25:51.346Z,5.40
2023-04-20T21:28:17.989Z,5.40
2023-04-20T21:30:44.931Z,5.40
2023-04-20T21:33:11.557Z,5.30
2023-04-20T21:35:38.298Z,5.30
2023-04-20T21:38:04.975Z,5.30
2023-04-20T21:40:32.486Z,5.30
2023-04-20T21:42:59.275Z,5.30
2023-04-20T21:45:25.942Z,5.30
2023-04-20T21:47:54.391Z,5.30
2023-04-20T21:50:27.157Z,5.30
2023-04-20T21:52:57.077Z,5.20
2023-04-20T21:55:23.785Z,5.20
2023-04-20T21:57:50.582Z,5.20
2023-04-20T22:00:18.159Z,5.20
2023-04-20T22:02:45.356Z,5.20
2023-04-20T22:05:12.712Z,6.20
2023-04-20T22:07:39.679Z,5.20
2023-04-20T22:10:07.024Z,5.20
2023-04-20T22:12:39.177Z,5.20
2023-04-20T22:15:11.153Z,5.20
2023-04-20T22:17:37.888Z,5.10
2023-04-20T22:20:07.755Z,5.10
2023-04-20T22:22:35.253Z,5.10
2023-04-20T22:25:03.103Z,5.00
2023-04-20T22:27:30.113Z,5.00
2023-04-20T22:29:56.963Z,4.90
2023-04-20T22:32:23.907Z,4.90
2023-04-20T22:34:50.969Z,4.80
2023-04-20T22:37:17.757Z,4.70
2023-04-20T22:39:44.432Z,4.60
2023-04-20T22:42:11.062Z,4.60
2023-04-20T22:44:37.755Z,4.50
2023-04-20T22:47:04.642Z,4.40
2023-04-20T22:49:32.043Z,4.30
2023-04-20T22:51:58.734Z,4.20
2023-04-20T22:54:25.673Z,4.10
2023-04-20T22:56:52.596Z,6.50
2023-04-20T22:59:19.926Z,4.00
2023-04-20T23:01:47.310Z,3.90
2023-04-20T23:04:14.343Z,3.90
2023-04-20T23:06:43.924Z,3.80
2023-04-20T23:09:12.479Z,3.80
2023-04-20T23:11:39.819Z,3.70
2023-04-20T23:14:06.946Z,3.60
2023-04-20T23:16:33.760Z,3.40
2023-04-20T23:19:01.136Z,3.30
2023-04-20T23:21:28.622Z,3.20
2023-04-20T23:23:58.404Z,3.10
2023-04-20T23:26:25.587Z,3.00
2023-04-20T23:28:52.900Z,2.90
2023-04-20T23:31:20.532Z,2.80
2023-04-20T23:33:47.936Z,2.60
2023-04-20T23:36:14.824Z,3.80
2023-04-20T23:38:41.603Z,2.40
2023-04-20T23:41:09.889Z,2.40
2023-04-20T23:43:38.382Z,2.40
2023-04-20T23:46:06.128Z,2.40
2023-04-20T23:48:33.280Z,2.40
2023-04-20T23:51:00.382Z,2.40
2023-04-20T23:53:26.969Z,2.50
2023-04-20T23:55:55.688Z,2.50
2023-04-20T23:58:23.088Z,2.30
